createdAt,value
2019-05-09T00:00:45.255Z,6.90
2019-05-09T00:03:14.448Z,6.57
2019-05-09T00:05:44.086Z,6.30
2019-05-09T00:08:13.980Z,7.13
2019-05-09T00:10:44.860Z,6.20
2019-05-09T00:13:13.934Z,6.30
2019-05-09T00:15:43.701Z,6.67
2019-05-09T00:18:14.226Z,6.70
2019-05-09T00:20:48.732Z,6.47
2019-05-09T00:23:18.039Z,6.23
2019-05-09T00:25:47.119Z,5.63
2019-05-09T00:28:16.142Z,4.63
2019-05-09T00:30:55.482Z,5.03
2019-05-09T00:33:29.951Z,4.67
2019-05-09T00:35:59.132Z,4.20
2019-05-09T00:38:33.362Z,5.17
2019-05-09T00:41:03.841Z,4.03
2019-05-09T00:43:34.247Z,5.30
2019-05-09T00:46:04.868Z,5.17
2019-05-09T00:48:35.695Z,4.80
2019-05-09T00:51:04.672Z,3.60
2019-05-09T00:53:34.026Z,2.30
2019-05-09T00:56:04.117Z,5.10
2019-05-09T00:58:33.671Z,4.07
2019-05-09T01:01:04.435Z,3.63
2019-05-09T01:03:34.140Z,4.33
2019-05-09T01:06:04.541Z,2.73
2019-05-09T01:08:33.822Z,3.83
2019-05-09T01:11:11.767Z,3.27
2019-05-09T01:13:34.234Z,3.27
2019-05-09T01:16:04.850Z,4.23
2019-05-09T01:18:34.500Z,3.53
2019-05-09T01:21:04.075Z,3.73
2019-05-09T01:23:34.401Z,2.20
2019-05-09T01:26:03.955Z,3.03
2019-05-09T01:28:33.941Z,3.67
2019-05-09T01:31:04.045Z,3.77
2019-05-09T01:33:37.631Z,3.13
2019-05-09T01:36:06.855Z,2.67
2019-05-09T01:38:35.853Z,1.50
2019-05-09T01:41:04.847Z,3.97
2019-05-09T01:43:34.239Z,3.27
2019-05-09T01:46:03.935Z,2.93
2019-05-09T01:48:34.142Z,3.60
2019-05-09T01:51:03.521Z,3.90
2019-05-09T01:53:35.500Z,4.90
2019-05-09T01:56:04.474Z,3.83
2019-05-09T01:58:34.566Z,3.13
2019-05-09T02:01:05.719Z,4.43
2019-05-09T02:03:34.806Z,4.63
2019-05-09T02:06:04.264Z,5.07
2019-05-09T02:08:34.530Z,4.20
2019-05-09T02:11:03.990Z,4.07
2019-05-09T02:13:33.833Z,4.43
2019-05-09T02:16:16.957Z,3.73
2019-05-09T02:18:47.500Z,2.87
2019-05-09T02:21:16.411Z,2.83
2019-05-09T02:23:45.489Z,3.87
2019-05-09T02:26:14.416Z,5.57
2019-05-09T02:28:43.735Z,4.67
2019-05-09T02:31:16.322Z,5.33
2019-05-09T02:33:45.406Z,4.93
2019-05-09T02:36:14.379Z,4.83
2019-05-09T02:38:43.378Z,5.07
2019-05-09T02:41:12.494Z,5.27
2019-05-09T02:43:41.416Z,5.03
2019-05-09T02:46:29.448Z,4.47
2019-05-09T02:48:59.402Z,4.00
2019-05-09T02:51:29.367Z,3.80
2019-05-09T02:53:58.745Z,4.57
2019-05-09T02:56:29.610Z,4.07
2019-05-09T02:59:03.463Z,4.60
2019-05-09T03:01:39.122Z,6.43
2019-05-09T03:04:08.414Z,5.20
2019-05-09T03:06:38.960Z,4.87
2019-05-09T03:09:09.106Z,6.27
2019-05-09T03:11:38.905Z,5.47
2019-05-09T03:14:09.211Z,6.93
2019-05-09T03:16:39.673Z,5.07
2019-05-09T03:19:09.465Z,5.47
2019-05-09T03:21:41.099Z,4.83
2019-05-09T03:24:10.314Z,3.20
2019-05-09T03:26:41.510Z,5.03
2019-05-09T03:29:29.559Z,5.80
2019-05-09T03:32:00.192Z,4.57
2019-05-09T03:34:30.319Z,5.80
2019-05-09T03:36:59.723Z,5.40
2019-05-09T03:39:29.255Z,4.70
2019-05-09T03:41:58.260Z,5.27
2019-05-09T03:44:28.275Z,5.33
2019-05-09T03:47:14.822Z,5.43
2019-05-09T03:49:43.703Z,4.27
2019-05-09T03:52:12.699Z,5.87
2019-05-09T03:54:43.378Z,5.03
2019-05-09T03:57:22.879Z,7.07
2019-05-09T03:59:52.054Z,5.40
2019-05-09T04:02:21.346Z,5.80
2019-05-09T04:04:50.773Z,6.37
2019-05-09T04:07:20.603Z,6.13
2019-05-09T04:09:49.573Z,4.80
2019-05-09T04:12:18.835Z,6.40
2019-05-09T04:14:48.143Z,6.80
2019-05-09T04:17:18.210Z,5.20
2019-05-09T04:19:50.465Z,5.43
2019-05-09T04:22:19.815Z,6.57
2019-05-09T04:24:49.490Z,6.00
2019-05-09T04:27:20.274Z,7.03
2019-05-09T04:29:49.412Z,6.53
2019-05-09T04:32:22.533Z,6.33
2019-05-09T04:34:51.856Z,5.37
2019-05-09T04:37:21.211Z,4.73
2019-05-09T04:39:54.071Z,5.80
2019-05-09T04:42:23.561Z,6.43
2019-05-09T04:44:58.878Z,5.97
2019-05-09T04:47:33.722Z,5.73
2019-05-09T04:50:04.292Z,5.53
2019-05-09T04:52:39.825Z,6.83
2019-05-09T04:55:09.201Z,6.60
2019-05-09T04:57:38.361Z,8.77
2019-05-09T05:00:10.071Z,8.27
2019-05-09T05:02:40.933Z,5.80
2019-05-09T05:05:10.118Z,6.30
2019-05-09T05:07:39.898Z,5.80
2019-05-09T05:10:09.254Z,5.83
2019-05-09T05:12:38.542Z,7.07
2019-05-09T05:15:08.171Z,7.10
2019-05-09T05:17:37.842Z,6.13
2019-05-09T05:20:09.145Z,6.20
2019-05-09T05:22:39.901Z,5.40
2019-05-09T05:25:09.428Z,5.77
2019-05-09T05:27:40.717Z,5.53
2019-05-09T05:30:10.627Z,5.33
2019-05-09T05:32:48.794Z,5.33
2019-05-09T05:35:19.528Z,5.73
2019-05-09T05:37:49.032Z,6.20
2019-05-09T05:40:18.604Z,7.20
2019-05-09T05:42:47.997Z,7.53
2019-05-09T05:45:18.190Z,6.60
2019-05-09T05:47:49.673Z,4.17
2019-05-09T05:50:19.225Z,5.93
2019-05-09T05:52:48.441Z,5.00
2019-05-09T05:55:18.268Z,5.50
2019-05-09T05:57:47.917Z,6.37
2019-05-09T06:00:18.502Z,6.17
2019-05-09T06:02:47.952Z,6.40
2019-05-09T06:05:18.751Z,4.60
2019-05-09T06:07:48.482Z,5.13
2019-05-09T06:10:18.962Z,5.27
2019-05-09T06:12:48.338Z,5.27
2019-05-09T06:15:19.349Z,5.80
2019-05-09T06:17:48.712Z,5.60
2019-05-09T06:20:19.114Z,5.57
2019-05-09T06:22:48.122Z,5.70
2019-05-09T06:25:20.908Z,6.57
2019-05-09T06:27:51.167Z,7.27
2019-05-09T06:30:25.395Z,0.90
2019-05-09T06:32:54.584Z,6.57
2019-05-09T06:35:23.767Z,6.50
2019-05-09T06:37:53.010Z,7.50
2019-05-09T06:40:22.962Z,5.37
2019-05-09T06:42:52.741Z,8.80
2019-05-09T06:45:41.649Z,5.10
2019-05-09T06:48:12.107Z,6.70
2019-05-09T06:50:41.320Z,6.67
2019-05-09T06:53:10.395Z,6.97
2019-05-09T06:55:39.327Z,6.50
2019-05-09T06:58:27.770Z,6.50
2019-05-09T07:00:58.630Z,9.20
2019-05-09T07:03:29.342Z,5.00
2019-05-09T07:06:00.199Z,6.80
2019-05-09T07:08:33.471Z,6.73
2019-05-09T07:11:02.482Z,6.63
2019-05-09T07:13:31.536Z,6.13
2019-05-09T07:16:00.608Z,6.67
2019-05-09T07:18:29.825Z,6.00
2019-05-09T07:20:58.780Z,6.10
2019-05-09T07:23:28.243Z,6.53
2019-05-09T07:25:58.844Z,6.93
2019-05-09T07:28:28.290Z,7.63
2019-05-09T07:30:59.870Z,6.37
2019-05-09T07:33:30.788Z,7.13
2019-05-09T07:35:59.796Z,4.50
2019-05-09T07:38:30.178Z,5.30
2019-05-09T07:41:01.169Z,7.67
2019-05-09T07:43:30.269Z,6.30
2019-05-09T07:46:08.741Z,6.13
2019-05-09T07:48:38.871Z,6.47
2019-05-09T07:51:08.127Z,8.17
2019-05-09T07:53:38.024Z,5.30
2019-05-09T07:56:07.967Z,5.10
2019-05-09T07:58:37.841Z,6.33
2019-05-09T08:01:08.650Z,6.80
2019-05-09T08:03:38.688Z,6.17
2019-05-09T08:06:13.439Z,3.93
2019-05-09T08:08:42.506Z,4.47
2019-05-09T08:11:11.425Z,6.63
2019-05-09T08:13:40.386Z,6.03
2019-05-09T08:16:14.395Z,5.67
2019-05-09T08:18:40.007Z,4.70
2019-05-09T08:21:08.923Z,5.77
2019-05-09T08:23:38.158Z,5.30
2019-05-09T08:26:08.710Z,8.23
2019-05-09T08:28:39.086Z,6.07
2019-05-09T08:31:11.200Z,5.60
2019-05-09T08:33:40.186Z,4.97
2019-05-09T08:36:09.264Z,10.70
2019-05-09T08:38:39.242Z,5.17
2019-05-09T08:41:09.831Z,6.43
2019-05-09T08:43:40.347Z,5.63
2019-05-09T08:46:09.956Z,4.53
2019-05-09T08:48:39.095Z,5.07
2019-05-09T08:51:17.858Z,4.93
2019-05-09T08:53:48.226Z,3.07
2019-05-09T08:56:17.805Z,3.30
2019-05-09T08:58:48.507Z,2.90
2019-05-09T09:01:30.503Z,5.50
2019-05-09T09:03:48.543Z,3.73
2019-05-09T09:06:18.354Z,3.97
2019-05-09T09:08:48.293Z,22.80
2019-05-09T09:11:18.783Z,29.83
2019-05-09T09:13:49.695Z,10.50
2019-05-09T09:16:22.440Z,9.53
2019-05-09T09:18:49.501Z,8.00
2019-05-09T09:21:18.765Z,6.30
2019-05-09T09:23:50.654Z,15.03
2019-05-09T09:26:18.520Z,8.50
2019-05-09T09:28:49.191Z,28.07
2019-05-09T09:31:18.190Z,56.07
2019-05-09T09:33:48.004Z,16.17
2019-05-09T09:36:18.006Z,11.63
2019-05-09T09:38:48.270Z,8.47
2019-05-09T09:41:18.265Z,6.30
2019-05-09T09:43:47.776Z,4.40
2019-05-09T09:46:18.382Z,4.70
2019-05-09T09:48:48.129Z,7.50
2019-05-09T09:51:18.742Z,5.77
2019-05-09T09:53:48.940Z,6.30
2019-05-09T09:56:22.081Z,4.30
2019-05-09T09:58:53.334Z,4.03
2019-05-09T10:01:28.822Z,7.70
2019-05-09T10:04:15.273Z,2.30
2019-05-09T10:06:30.219Z,4.17
2019-05-09T10:08:59.184Z,3.43
2019-05-09T10:11:28.700Z,4.33
2019-05-09T10:13:58.416Z,3.73
2019-05-09T10:16:38.845Z,4.10
2019-05-09T10:19:14.549Z,3.00
2019-05-09T10:21:48.695Z,4.30
2019-05-09T10:24:17.668Z,4.33
2019-05-09T10:26:57.833Z,4.73
2019-05-09T10:29:27.899Z,3.60
2019-05-09T10:31:57.854Z,4.93
2019-05-09T10:34:28.829Z,4.20
2019-05-09T10:36:58.387Z,6.53
2019-05-09T10:39:27.713Z,5.03
2019-05-09T10:41:58.699Z,4.00
2019-05-09T10:44:38.000Z,4.57
2019-05-09T10:47:14.591Z,7.33
2019-05-09T10:49:43.843Z,4.20
2019-05-09T10:52:14.512Z,4.70
2019-05-09T10:54:43.701Z,3.10
2019-05-09T10:57:12.704Z,3.90
2019-05-09T10:59:41.675Z,17.00
2019-05-09T11:02:10.710Z,7.43
2019-05-09T11:04:44.271Z,5.63
2019-05-09T11:07:11.135Z,9.73
2019-05-09T11:09:40.258Z,4.60
2019-05-09T11:12:09.610Z,5.07
2019-05-09T11:14:38.559Z,3.70
2019-05-09T11:17:15.955Z,6.47
2019-05-09T11:19:38.226Z,4.17
2019-05-09T11:22:08.147Z,4.97
2019-05-09T11:24:45.746Z,4.80
2019-05-09T11:27:08.565Z,4.57
2019-05-09T11:29:38.828Z,5.43
2019-05-09T11:32:08.155Z,4.50
2019-05-09T11:34:37.630Z,6.67
2019-05-09T11:37:08.478Z,4.20
2019-05-09T11:39:42.025Z,5.87
2019-05-09T11:42:08.515Z,4.70
2019-05-09T11:44:38.485Z,4.80
2019-05-09T11:47:26.823Z,4.67
2019-05-09T11:49:39.040Z,4.87
2019-05-09T11:52:08.480Z,5.27
2019-05-09T11:54:38.872Z,5.10
2019-05-09T11:57:07.963Z,3.80
2019-05-09T11:59:37.906Z,3.73
2019-05-09T12:02:08.886Z,4.77
2019-05-09T12:04:39.380Z,3.93
2019-05-09T12:07:08.315Z,4.07
2019-05-09T12:09:38.507Z,5.83
2019-05-09T12:12:07.775Z,5.77
2019-05-09T12:14:38.203Z,5.20
2019-05-09T12:17:08.342Z,5.33
2019-05-09T12:19:38.166Z,4.97
2019-05-09T12:22:08.946Z,4.47
2019-05-09T12:24:38.562Z,2.03
2019-05-09T12:27:08.824Z,4.10
2019-05-09T12:29:38.711Z,5.60
2019-05-09T12:32:08.761Z,4.73
2019-05-09T12:34:37.956Z,4.50
2019-05-09T12:37:09.512Z,5.30
2019-05-09T12:39:38.747Z,3.57
2019-05-09T12:42:08.854Z,3.53
2019-05-09T12:44:39.012Z,3.13
2019-05-09T12:47:08.359Z,3.07
2019-05-09T12:49:39.893Z,2.23
2019-05-09T12:52:08.884Z,5.10
2019-05-09T12:54:38.622Z,4.27
2019-05-09T12:57:08.093Z,1.53
2019-05-09T12:59:46.438Z,3.83
2019-05-09T13:02:08.096Z,5.20
2019-05-09T13:04:38.222Z,1.90
2019-05-09T13:07:08.589Z,3.17
2019-05-09T13:09:37.780Z,3.77
2019-05-09T13:12:08.641Z,3.73
2019-05-09T13:14:38.060Z,4.33
2019-05-09T13:17:14.591Z,5.50
2019-05-09T13:19:47.758Z,3.67
2019-05-09T13:22:18.326Z,4.47
2019-05-09T13:24:47.495Z,4.60
2019-05-09T13:27:18.743Z,5.90
2019-05-09T13:29:49.294Z,4.43
2019-05-09T13:32:18.126Z,5.00
2019-05-09T13:34:48.612Z,5.27
2019-05-09T13:37:18.808Z,6.37
2019-05-09T13:39:48.153Z,5.70
2019-05-09T13:42:19.681Z,4.47
2019-05-09T13:44:47.755Z,6.60
2019-05-09T13:47:17.875Z,4.17
2019-05-09T13:49:48.692Z,4.10
2019-05-09T13:52:18.055Z,4.20
2019-05-09T13:54:48.338Z,5.57
2019-05-09T13:57:19.098Z,3.50
2019-05-09T13:59:50.436Z,3.80
2019-05-09T14:02:19.530Z,5.07
2019-05-09T14:04:48.881Z,2.93
2019-05-09T14:07:19.232Z,2.53
2019-05-09T14:09:48.759Z,5.20
2019-05-09T14:12:17.831Z,4.60
2019-05-09T14:14:48.399Z,4.63
2019-05-09T14:17:19.103Z,4.00
2019-05-09T14:19:51.073Z,3.50
2019-05-09T14:22:20.150Z,2.60
2019-05-09T14:24:49.331Z,4.10
2019-05-09T14:27:18.826Z,3.77
2019-05-09T14:29:49.700Z,3.50
2019-05-09T14:32:18.599Z,3.77
2019-05-09T14:34:48.306Z,2.57
2019-05-09T14:37:18.143Z,4.90
2019-05-09T14:39:55.857Z,3.07
2019-05-09T14:42:19.447Z,3.50
2019-05-09T14:44:48.439Z,5.10
2019-05-09T14:47:17.804Z,4.43
2019-05-09T14:49:49.889Z,4.73
2019-05-09T14:52:18.154Z,2.70
2019-05-09T14:54:48.244Z,3.27
2019-05-09T14:57:17.641Z,3.80
2019-05-09T14:59:47.842Z,3.53
2019-05-09T15:02:17.878Z,4.67
2019-05-09T15:04:48.575Z,4.63
2019-05-09T15:07:19.445Z,4.27
2019-05-09T15:09:48.567Z,2.97
2019-05-09T15:12:18.632Z,2.37
2019-05-09T15:14:48.121Z,2.67
2019-05-09T15:17:18.559Z,3.63
2019-05-09T15:19:57.428Z,3.07
2019-05-09T15:22:18.334Z,2.87
2019-05-09T15:24:47.829Z,2.37
2019-05-09T15:27:17.772Z,2.47
2019-05-09T15:29:48.616Z,3.77
2019-05-09T15:32:18.408Z,2.73
2019-05-09T15:34:47.530Z,2.33
2019-05-09T15:37:18.675Z,2.80
2019-05-09T15:39:48.460Z,2.67
2019-05-09T15:42:18.349Z,4.67
2019-05-09T15:44:47.646Z,3.33
2019-05-09T15:47:18.713Z,1.10
2019-05-09T15:49:49.403Z,3.80
2019-05-09T15:52:18.349Z,5.97
2019-05-09T15:54:47.350Z,3.13
2019-05-09T15:57:17.599Z,3.47
2019-05-09T15:59:47.977Z,2.23
2019-05-09T16:02:19.062Z,3.63
2019-05-09T16:04:47.730Z,2.27
2019-05-09T16:07:17.873Z,3.30
2019-05-09T16:09:48.317Z,2.60
2019-05-09T16:12:18.614Z,3.73
2019-05-09T16:14:48.642Z,2.97
2019-05-09T16:17:19.170Z,3.70
2019-05-09T16:19:48.519Z,3.37
2019-05-09T16:22:18.978Z,6.97
2019-05-09T16:24:50.626Z,10.80
2019-05-09T16:27:19.791Z,11.90
2019-05-09T16:29:48.854Z,17.23
2019-05-09T16:32:17.918Z,17.10
2019-05-09T16:34:47.963Z,18.00
2019-05-09T16:37:17.578Z,15.57
2019-05-09T16:39:47.621Z,28.67
2019-05-09T16:42:16.876Z,38.20
2019-05-09T16:44:47.736Z,42.13
2019-05-09T16:47:21.504Z,32.17
2019-05-09T16:49:49.493Z,66.63
2019-05-09T16:52:20.502Z,28.30
2019-05-09T16:54:50.926Z,29.23
2019-05-09T16:57:19.933Z,21.63
2019-05-09T16:59:48.935Z,10.13
2019-05-09T17:02:24.493Z,12.30
2019-05-09T17:04:48.757Z,16.53
2019-05-09T17:07:18.102Z,8.90
2019-05-09T17:09:48.466Z,6.43
2019-05-09T17:12:18.638Z,4.30
2019-05-09T17:14:47.768Z,4.57
2019-05-09T17:17:17.841Z,4.10
2019-05-09T17:19:48.067Z,6.63
2019-05-09T17:22:38.131Z,5.70
2019-05-09T17:25:07.971Z,5.73
2019-05-09T17:27:38.728Z,5.17
2019-05-09T17:30:09.905Z,4.20
2019-05-09T17:32:39.034Z,5.90
2019-05-09T17:35:08.417Z,6.00
2019-05-09T17:37:37.978Z,4.27
2019-05-09T17:40:07.949Z,4.37
2019-05-09T17:42:38.205Z,5.30
2019-05-09T17:45:08.435Z,5.97
2019-05-09T17:47:37.864Z,4.97
2019-05-09T17:50:07.841Z,4.57
2019-05-09T17:52:37.047Z,5.37
2019-05-09T17:55:07.369Z,8.83
2019-05-09T17:57:38.830Z,4.03
2019-05-09T18:00:08.679Z,4.33
2019-05-09T18:02:38.575Z,4.90
2019-05-09T18:05:07.899Z,4.90
2019-05-09T18:07:37.658Z,6.53
2019-05-09T18:10:07.791Z,4.60
2019-05-09T18:12:38.387Z,5.77
2019-05-09T18:15:07.790Z,5.93
2019-05-09T18:17:38.305Z,3.93
2019-05-09T18:20:08.094Z,5.10
2019-05-09T18:22:37.184Z,9.27
2019-05-09T18:25:08.346Z,6.43
2019-05-09T18:27:37.971Z,5.80
2019-05-09T18:30:07.674Z,5.57
2019-05-09T18:32:38.438Z,7.43
2019-05-09T18:35:16.754Z,7.77
2019-05-09T18:37:48.135Z,5.07
2019-05-09T18:40:18.174Z,5.47
2019-05-09T18:42:50.172Z,4.57
2019-05-09T18:45:19.440Z,4.90
2019-05-09T18:47:48.459Z,3.33
2019-05-09T18:50:17.802Z,4.27
2019-05-09T18:52:46.794Z,3.63
2019-05-09T18:55:16.262Z,4.30
2019-05-09T18:57:46.653Z,4.87
2019-05-09T19:00:17.357Z,4.93
2019-05-09T19:02:46.647Z,5.37
2019-05-09T19:05:16.055Z,4.53
2019-05-09T19:07:45.921Z,14.77
2019-05-09T19:10:15.177Z,9.07
2019-05-09T19:12:44.461Z,36.03
2019-05-09T19:15:18.035Z,12.67
2019-05-09T19:18:00.709Z,13.57
2019-05-09T19:20:37.612Z,16.17
2019-05-09T19:23:06.659Z,31.80
2019-05-09T19:25:35.654Z,22.83
2019-05-09T19:28:04.718Z,7.97
2019-05-09T19:30:34.159Z,23.90
2019-05-09T19:33:03.804Z,13.70
2019-05-09T19:35:33.294Z,13.47
2019-05-09T19:38:02.412Z,50.57
2019-05-09T19:40:31.976Z,6.93
2019-05-09T19:43:02.667Z,13.37
2019-05-09T19:45:31.583Z,21.03
2019-05-09T19:48:00.939Z,37.47
2019-05-09T19:50:30.500Z,9.60
2019-05-09T19:53:00.168Z,6.63
2019-05-09T19:55:30.703Z,6.67
2019-05-09T19:57:59.785Z,5.33
2019-05-09T20:00:29.121Z,7.47
2019-05-09T20:02:59.017Z,7.57
2019-05-09T20:05:30.490Z,4.50
2019-05-09T20:07:59.806Z,5.40
2019-05-09T20:10:50.278Z,3.03
2019-05-09T20:13:20.889Z,5.63
2019-05-09T20:15:50.122Z,5.20
2019-05-09T20:18:21.264Z,6.30
2019-05-09T20:23:40.698Z,4.00
2019-05-09T20:26:10.871Z,2.73
2019-05-09T20:28:41.368Z,3.03
2019-05-09T20:31:10.513Z,3.10
2019-05-09T20:33:39.770Z,3.60
2019-05-09T20:36:08.887Z,3.13
2019-05-09T20:38:38.616Z,5.20
2019-05-09T20:41:08.095Z,5.43
2019-05-09T20:43:38.500Z,2.63
2019-05-09T20:46:10.370Z,2.13
2019-05-09T20:48:41.851Z,5.83
2019-05-09T20:51:15.091Z,4.10
2019-05-09T20:53:47.680Z,4.00
2019-05-09T20:56:17.508Z,5.03
2019-05-09T20:58:48.590Z,4.67
2019-05-09T21:01:18.186Z,3.23
2019-05-09T21:03:59.642Z,3.03
2019-05-09T21:06:18.984Z,2.57
2019-05-09T21:08:48.253Z,3.40
2019-05-09T21:11:17.708Z,4.03
2019-05-09T21:13:49.119Z,2.30
2019-05-09T21:16:19.398Z,3.70
2019-05-09T21:18:48.657Z,3.87
2019-05-09T21:21:20.460Z,4.50
2019-05-09T21:23:51.248Z,3.10
2019-05-09T21:26:20.691Z,3.17
2019-05-09T21:28:49.831Z,4.90
2019-05-09T21:31:19.485Z,3.23
2019-05-09T21:33:48.888Z,3.90
2019-05-09T21:36:18.263Z,3.83
2019-05-09T21:38:47.748Z,2.80
2019-05-09T21:41:17.042Z,3.73
2019-05-09T21:43:49.352Z,3.43
2019-05-09T21:46:18.610Z,3.53
2019-05-09T21:48:49.103Z,3.97
2019-05-09T21:51:18.267Z,3.23
2019-05-09T21:53:47.892Z,3.83
2019-05-09T21:56:17.415Z,3.07
2019-05-09T21:58:47.123Z,4.10
2019-05-09T22:01:18.217Z,5.77
2019-05-09T22:03:48.895Z,4.33
2019-05-09T22:06:18.426Z,4.13
2019-05-09T22:08:47.766Z,4.43
2019-05-09T22:11:17.243Z,3.87
2019-05-09T22:13:47.264Z,3.10
2019-05-09T22:16:18.175Z,4.10
2019-05-09T22:18:47.950Z,2.90
2019-05-09T22:21:23.206Z,4.53
2019-05-09T22:23:56.596Z,4.80
2019-05-09T22:26:25.101Z,3.80
2019-05-09T22:28:54.484Z,5.73
2019-05-09T22:31:25.916Z,3.47
2019-05-09T22:33:56.603Z,3.03
2019-05-09T22:36:28.897Z,2.60
2019-05-09T22:38:59.916Z,4.77
2019-05-09T22:41:28.848Z,4.67
2019-05-09T22:43:58.323Z,3.90
2019-05-09T22:46:27.951Z,4.87
2019-05-09T22:48:57.560Z,4.30
2019-05-09T22:51:26.783Z,4.17
2019-05-09T22:54:10.483Z,4.50
2019-05-09T22:56:27.731Z,4.03
2019-05-09T22:58:56.671Z,5.13
2019-05-09T23:01:25.593Z,4.13
2019-05-09T23:03:54.499Z,4.10
2019-05-09T23:06:24.666Z,4.50
2019-05-09T23:08:53.621Z,5.00
2019-05-09T23:11:22.755Z,4.40
2019-05-09T23:13:51.763Z,4.53
2019-05-09T23:16:21.443Z,4.63
2019-05-09T23:18:51.944Z,2.03
2019-05-09T23:21:22.946Z,3.37
2019-05-09T23:24:02.627Z,4.57
2019-05-09T23:26:31.655Z,5.67
2019-05-09T23:29:00.593Z,5.60
2019-05-09T23:31:34.172Z,4.93
2019-05-09T23:34:03.480Z,5.17
2019-05-09T23:36:32.480Z,4.77
2019-05-09T23:39:08.928Z,5.43
2019-05-09T23:41:38.028Z,5.50
2019-05-09T23:44:07.215Z,6.10
2019-05-09T23:46:36.137Z,4.93
2019-05-09T23:49:05.159Z,5.97
2019-05-09T23:51:45.486Z,5.80
2019-05-09T23:54:45.319Z,5.07
2019-05-09T23:57:23.813Z,5.87
